Estación meteorológica de Calldetenes (Osona, Plana de Vic)

Consulta los datos en tiempo real de la estación meteorológica de Calldetenes





Hora UTC 02:55
Temperatura 12.1 ºC
Suelo 15 cm 12.1 ºC
Humedad 97.4 %
Presión 1014.0 hPa
Pluja 0.0 mm
Velocidad viento 3.4 km/h
Dirección viento SE
Radiación solar 0.1 W/m²

Webcam

Datos diarios 2026-05-04



Hora UTC (invierno +1h; verano +2h)
Temperatura (ºC) Humedad (%) Presión (hPa) Velocidad viento (km/h) Precipitación (mm) Radiación solar (W/m²)
Hora UTC Aire Suelo 15 cm Humedad Presión Vel. Dir. Vel. Max Dir. Intent. máx 5 min. Rad. Sol.
00:05 13.0 13.0 93.7 1014.8 4.1 SSW 4.1 SSW 0.0 0.1
00:10 13.0 13.0 94.2 1014.8 3.1 SSW 5.6 SSW 0.0 0.1
00:15 13.0 13.1 94.4 1014.7 2.5 SW 4.9 SSW 0.0 0.1
00:20 13.0 13.1 94.5 1014.7 4.9 SW 7.1 WSW 0.0 0.1
00:25 13.0 13.0 94.7 1014.8 5.4 WSW 7.8 SW 0.0 0.1
00:30 12.9 13.0 95.3 1014.8 4.6 SW 6.4 SW 0.0 0.1
00:35 12.9 13.0 95.4 1014.8 4.8 SW 7.1 SSW 0.0 0.1
00:40 12.8 13.0 95.1 1014.8 4.6 SW 6.7 SW 0.0 0.1
00:45 12.8 13.0 94.9 1014.8 4.4 SW 6.0 SSW 0.0 0.1
00:50 12.8 12.9 94.9 1014.8 4.4 SW 6.0 SW 0.0 0.1
00:55 12.8 12.9 94.7 1014.8 4.5 SW 7.1 SW 0.0 0.1
01:00 12.8 12.9 94.7 1014.8 4.1 SW 6.4 SSW 0.0 0.1
01:05 12.9 12.9 94.9 1014.8 2.7 S 4.9 SSW 0.0 0.1
01:10 12.8 12.9 94.4 1014.8 1.1 ESE 3.2 SSE 0.0 0.1
01:15 12.7 12.8 94.8 1014.5 1.1 E 2.8 NE 0.0 0.1
01:20 12.6 12.6 95.1 1014.5 0.4 E 1.8 SE 0.0 0.1
01:25 12.5 12.5 95.7 1014.5 1.9 SE 3.2 SE 0.0 0.1
01:30 12.5 12.4 96.1 1014.5 1.6 ESE 2.8 SE 0.0 0.1
01:35 12.5 12.3 96.1 1014.4 1.5 ESE 2.8 ESE 0.0 0.1
01:40 12.5 12.3 96.2 1014.4 3.0 ESE 4.6 ESE 0.0 0.1
01:45 12.6 12.3 96.4 1014.4 3.7 ESE 5.3 ESE 0.0 0.1
01:50 12.5 12.3 96.3 1014.4 3.6 SE 5.6 ESE 0.0 0.1
01:55 12.5 12.3 96.7 1014.4 3.1 SE 4.6 SE 0.0 0.1
02:00 12.5 12.3 96.9 1014.4 2.2 SE 4.2 ESE 0.0 0.1
02:05 12.4 12.3 97.2 1014.3 3.7 ESE 4.9 SE 0.0 0.1
02:10 12.3 12.3 97.4 1014.3 2.3 ESE 3.9 ESE 0.0 0.1
02:15 12.3 12.2 97.7 1014.2 2.5 SE 3.9 SE 0.0 0.1
02:20 12.4 12.2 97.7 1014.2 2.0 SSE 4.2 SSE 0.0 0.1
02:25 12.3 12.2 97.3 1014.1 0.5 ESE 2.1 ESE 0.0 0.1
02:30 12.2 12.1 97.5 1014.1 0.0 E 1.1 E 0.0 0.1
02:35 12.1 12.0 97.6 1014.1 0.8 ENE 2.8 ENE 0.0 0.1
02:40 12.0 11.9 97.9 1014.1 3.1 ENE 3.5 ENE 0.0 0.1
02:45 12.1 11.9 98.4 1014.0 3.4 ESE 4.9 SE 0.0 0.1
02:50 12.3 12.0 98.0 1014.0 2.2 ESE 4.2 ESE 0.0 0.1
02:55 12.1 12.1 97.4 1014.0 3.4 SE 4.9 ESE 0.0 0.1
Máxima 13.0 13.1 98.4 1014.8 5.4 WSW 7.8 SW 0.0 0.1
Mínima 12.0 11.9 93.7 1014.0
Total 0.0